KMK712 PHOG-PHNL
Flight info
| Callsign | KMK712 |
|---|---|
| Flight time | 0h 46m |
| Altitude | 8000 |
| Route | MAUI5 OGG LNY JULLE5 |
| Aircraft | C208/L-SDFGR/C |
Departure
| Time | 2026-04-21 17:26 |
|---|---|
| Airport | Kahului International Airport (PHOG) |
Arrival
| Time | 2026-04-21 18:13 |
|---|---|
| Airport | Daniel K. Inouye International Airport (PHNL) |
| Time | Latitude | Longitude | Altitude | Speed | Heading |
|---|---|---|---|---|---|
| 2026-04-21 17:02 | 20.88953 | -156.43870 | 22 ft | 0 kts | 33° |
| 2026-04-21 17:22 | 20.88997 | -156.43772 | 31 ft | 17 kts | 81° |
| 2026-04-21 17:23 | 20.88993 | -156.43711 | 31 ft | 3 kts | 131° |
| 2026-04-21 17:23 | 20.88993 | -156.43710 | 31 ft | 0 kts | 130° |
| 2026-04-21 17:24 | 20.88986 | -156.43701 | 31 ft | 6 kts | 126° |
| 2026-04-21 17:25 | 20.88965 | -156.43599 | 31 ft | 17 kts | 54° |
| 2026-04-21 17:25 | 20.89098 | -156.43495 | 31 ft | 39 kts | 34° |
| 2026-04-21 17:25 | 20.89453 | -156.43235 | 33 ft | 83 kts | 35° |
| 2026-04-21 17:25 | 20.90012 | -156.42835 | 103 ft | 108 kts | 35° |
| 2026-04-21 17:26 | 20.90427 | -156.42518 | 243 ft | 113 kts | 36° |
| 2026-04-21 17:26 | 20.91166 | -156.42215 | 480 ft | 119 kts | 5° |
| 2026-04-21 17:26 | 20.91980 | -156.42100 | 755 ft | 120 kts | 8° |
| 2026-04-21 17:26 | 20.92805 | -156.41961 | 1028 ft | 119 kts | 8° |
| 2026-04-21 17:27 | 20.93626 | -156.41822 | 1285 ft | 120 kts | 8° |
| 2026-04-21 17:27 | 20.94714 | -156.41639 | 1625 ft | 119 kts | 8° |
| 2026-04-21 17:27 | 20.95258 | -156.41547 | 1796 ft | 119 kts | 8° |
| 2026-04-21 17:27 | 20.96076 | -156.41405 | 2046 ft | 119 kts | 8° |
| 2026-04-21 17:28 | 20.96896 | -156.41265 | 2292 ft | 120 kts | 8° |
| 2026-04-21 17:28 | 20.97721 | -156.41125 | 2533 ft | 120 kts | 8° |
| 2026-04-21 17:28 | 20.98551 | -156.41020 | 2777 ft | 121 kts | 352° |
| 2026-04-21 17:28 | 20.99241 | -156.41496 | 3015 ft | 121 kts | 316° |
| 2026-04-21 17:29 | 20.99877 | -156.42094 | 3250 ft | 122 kts | 319° |
| 2026-04-21 17:29 | 21.00521 | -156.42693 | 3481 ft | 123 kts | 319° |
| 2026-04-21 17:29 | 21.01165 | -156.43296 | 3711 ft | 123 kts | 318° |
| 2026-04-21 17:29 | 21.01810 | -156.43902 | 3932 ft | 124 kts | 319° |
| 2026-04-21 17:30 | 21.02446 | -156.44506 | 4162 ft | 124 kts | 318° |
| 2026-04-21 17:30 | 21.03090 | -156.45119 | 4391 ft | 124 kts | 318° |
| 2026-04-21 17:30 | 21.03737 | -156.45735 | 4620 ft | 125 kts | 318° |
| 2026-04-21 17:30 | 21.04388 | -156.46353 | 4844 ft | 125 kts | 319° |
| 2026-04-21 17:31 | 21.05040 | -156.46977 | 5084 ft | 125 kts | 319° |
| 2026-04-21 17:31 | 21.05690 | -156.47599 | 5310 ft | 126 kts | 319° |
| 2026-04-21 17:31 | 21.06343 | -156.48222 | 5537 ft | 126 kts | 319° |
| 2026-04-21 17:31 | 21.06996 | -156.48857 | 5758 ft | 127 kts | 318° |
| 2026-04-21 17:32 | 21.07433 | -156.49635 | 5974 ft | 128 kts | 273° |
| 2026-04-21 17:32 | 21.07397 | -156.50593 | 6192 ft | 129 kts | 269° |
| 2026-04-21 17:32 | 21.07369 | -156.51556 | 6416 ft | 130 kts | 269° |
| 2026-04-21 17:32 | 21.07336 | -156.52521 | 6637 ft | 129 kts | 269° |
| 2026-04-21 17:33 | 21.07303 | -156.53482 | 6841 ft | 129 kts | 269° |
| 2026-04-21 17:33 | 21.07271 | -156.54442 | 7043 ft | 129 kts | 268° |
| 2026-04-21 17:33 | 21.07240 | -156.55400 | 7246 ft | 129 kts | 268° |
| 2026-04-21 17:33 | 21.07211 | -156.56356 | 7461 ft | 128 kts | 268° |
| 2026-04-21 17:34 | 21.07182 | -156.57307 | 7660 ft | 128 kts | 268° |
| 2026-04-21 17:34 | 21.07154 | -156.58260 | 7869 ft | 128 kts | 268° |
| 2026-04-21 17:34 | 21.07126 | -156.59217 | 8010 ft | 133 kts | 268° |
| 2026-04-21 17:34 | 21.07062 | -156.60237 | 8027 ft | 145 kts | 262° |
| 2026-04-21 17:35 | 21.06904 | -156.61339 | 8023 ft | 154 kts | 262° |
| 2026-04-21 17:35 | 21.06765 | -156.62497 | 8020 ft | 159 kts | 263° |
| 2026-04-21 17:35 | 21.06631 | -156.63689 | 8024 ft | 163 kts | 264° |
| 2026-04-21 17:35 | 21.06496 | -156.64902 | 8023 ft | 165 kts | 263° |
| 2026-04-21 17:36 | 21.06361 | -156.66127 | 8025 ft | 166 kts | 264° |
| 2026-04-21 17:36 | 21.06224 | -156.67360 | 8024 ft | 167 kts | 264° |
| 2026-04-21 17:36 | 21.06087 | -156.68598 | 8022 ft | 168 kts | 264° |
| 2026-04-21 17:36 | 21.05951 | -156.69821 | 8024 ft | 168 kts | 264° |
| 2026-04-21 17:37 | 21.05814 | -156.71060 | 8022 ft | 168 kts | 264° |
| 2026-04-21 17:37 | 21.05676 | -156.72301 | 8024 ft | 167 kts | 264° |
| 2026-04-21 17:37 | 21.05539 | -156.73536 | 8025 ft | 167 kts | 264° |
| 2026-04-21 17:37 | 21.05402 | -156.74769 | 8026 ft | 167 kts | 264° |
| 2026-04-21 17:38 | 21.05265 | -156.76001 | 8030 ft | 167 kts | 264° |
| 2026-04-21 17:38 | 21.05127 | -156.77232 | 8031 ft | 166 kts | 264° |
| 2026-04-21 17:38 | 21.04990 | -156.78462 | 8032 ft | 166 kts | 264° |
| 2026-04-21 17:38 | 21.04853 | -156.79692 | 8033 ft | 166 kts | 264° |
| 2026-04-21 17:39 | 21.04718 | -156.80904 | 8031 ft | 166 kts | 264° |
| 2026-04-21 17:39 | 21.04581 | -156.82133 | 8032 ft | 166 kts | 263° |
| 2026-04-21 17:39 | 21.04444 | -156.83361 | 8033 ft | 166 kts | 264° |
| 2026-04-21 17:39 | 21.04306 | -156.84589 | 8035 ft | 166 kts | 263° |
| 2026-04-21 17:40 | 21.04169 | -156.85814 | 8030 ft | 166 kts | 264° |
| 2026-04-21 17:40 | 21.04032 | -156.87043 | 8036 ft | 166 kts | 263° |
| 2026-04-21 17:40 | 21.03894 | -156.88271 | 8037 ft | 166 kts | 263° |
| 2026-04-21 17:40 | 21.03756 | -156.89500 | 8037 ft | 166 kts | 263° |
| 2026-04-21 17:41 | 21.03621 | -156.90711 | 8033 ft | 166 kts | 263° |
| 2026-04-21 17:41 | 21.03483 | -156.91938 | 8040 ft | 166 kts | 263° |
| 2026-04-21 17:41 | 21.03345 | -156.93165 | 8040 ft | 166 kts | 263° |
| 2026-04-21 17:41 | 21.03207 | -156.94391 | 8041 ft | 166 kts | 263° |
| 2026-04-21 17:42 | 21.03069 | -156.95618 | 8041 ft | 166 kts | 263° |
| 2026-04-21 17:42 | 21.02932 | -156.96844 | 8036 ft | 166 kts | 263° |
| 2026-04-21 17:42 | 21.02794 | -156.98071 | 8040 ft | 166 kts | 263° |
| 2026-04-21 17:42 | 21.02655 | -156.99297 | 8040 ft | 166 kts | 263° |
| 2026-04-21 17:43 | 21.02517 | -157.00524 | 8039 ft | 166 kts | 263° |
| 2026-04-21 17:43 | 21.02380 | -157.01734 | 8038 ft | 166 kts | 263° |
| 2026-04-21 17:43 | 21.02242 | -157.02958 | 8036 ft | 166 kts | 264° |
| 2026-04-21 17:43 | 21.02104 | -157.04185 | 8035 ft | 166 kts | 263° |
| 2026-04-21 17:44 | 21.01965 | -157.05412 | 8024 ft | 166 kts | 263° |
| 2026-04-21 17:44 | 21.01826 | -157.06638 | 8029 ft | 166 kts | 263° |
| 2026-04-21 17:44 | 21.01687 | -157.07864 | 8027 ft | 166 kts | 263° |
| 2026-04-21 17:44 | 21.01548 | -157.09089 | 8021 ft | 166 kts | 263° |
| 2026-04-21 17:45 | 21.01410 | -157.10316 | 8026 ft | 166 kts | 263° |
| 2026-04-21 17:45 | 21.01270 | -157.11542 | 8025 ft | 166 kts | 263° |
| 2026-04-21 17:45 | 21.01133 | -157.12752 | 8023 ft | 166 kts | 263° |
| 2026-04-21 17:45 | 21.00994 | -157.13978 | 8021 ft | 166 kts | 263° |
| 2026-04-21 17:46 | 21.00854 | -157.15204 | 8021 ft | 166 kts | 263° |
| 2026-04-21 17:46 | 21.00715 | -157.16430 | 8021 ft | 166 kts | 263° |
| 2026-04-21 17:46 | 21.00576 | -157.17656 | 8019 ft | 166 kts | 263° |
| 2026-04-21 17:46 | 21.00436 | -157.18882 | 8016 ft | 166 kts | 263° |
| 2026-04-21 17:47 | 21.00297 | -157.20106 | 8016 ft | 166 kts | 263° |
| 2026-04-21 17:47 | 21.00157 | -157.21333 | 8013 ft | 166 kts | 263° |
| 2026-04-21 17:47 | 21.00018 | -157.22555 | 8011 ft | 166 kts | 263° |
| 2026-04-21 17:47 | 20.99878 | -157.23778 | 8005 ft | 166 kts | 263° |
| 2026-04-21 17:48 | 20.99740 | -157.24984 | 8006 ft | 165 kts | 263° |
| 2026-04-21 17:48 | 20.99601 | -157.26206 | 8003 ft | 165 kts | 263° |
| 2026-04-21 17:48 | 20.99461 | -157.27428 | 7997 ft | 165 kts | 263° |
| 2026-04-21 17:48 | 20.99319 | -157.28649 | 7999 ft | 165 kts | 263° |
| 2026-04-21 17:49 | 20.99182 | -157.29872 | 8002 ft | 165 kts | 263° |
| 2026-04-21 17:49 | 20.99036 | -157.31092 | 8001 ft | 165 kts | 263° |
| 2026-04-21 17:49 | 20.98902 | -157.32314 | 8001 ft | 165 kts | 264° |
| 2026-04-21 17:49 | 20.98765 | -157.33534 | 8000 ft | 165 kts | 263° |
| 2026-04-21 17:50 | 20.98622 | -157.34755 | 8002 ft | 165 kts | 263° |
| 2026-04-21 17:50 | 20.98482 | -157.35975 | 7998 ft | 165 kts | 263° |
| 2026-04-21 17:50 | 20.98341 | -157.37196 | 8002 ft | 165 kts | 263° |
| 2026-04-21 17:50 | 20.98200 | -157.38417 | 8003 ft | 165 kts | 263° |
| 2026-04-21 17:51 | 20.98061 | -157.39622 | 8003 ft | 165 kts | 263° |
| 2026-04-21 17:51 | 20.97921 | -157.40843 | 7996 ft | 165 kts | 263° |
| 2026-04-21 17:51 | 20.97781 | -157.42064 | 8004 ft | 165 kts | 263° |
| 2026-04-21 17:51 | 20.97639 | -157.43284 | 8003 ft | 165 kts | 263° |
| 2026-04-21 17:52 | 20.97499 | -157.44504 | 8005 ft | 165 kts | 263° |
| 2026-04-21 17:52 | 20.97358 | -157.45725 | 8000 ft | 165 kts | 263° |
| 2026-04-21 17:52 | 20.97212 | -157.46945 | 8003 ft | 165 kts | 262° |
| 2026-04-21 17:52 | 20.97068 | -157.48166 | 8002 ft | 165 kts | 264° |
| 2026-04-21 17:53 | 20.96938 | -157.49388 | 8005 ft | 165 kts | 264° |
| 2026-04-21 17:53 | 20.96801 | -157.50590 | 8005 ft | 165 kts | 263° |
| 2026-04-21 17:53 | 20.96657 | -157.51810 | 8005 ft | 165 kts | 263° |
| 2026-04-21 17:53 | 20.96513 | -157.53031 | 8005 ft | 165 kts | 263° |
| 2026-04-21 17:54 | 20.96371 | -157.54252 | 8002 ft | 165 kts | 263° |
| 2026-04-21 17:54 | 20.96229 | -157.55472 | 8001 ft | 165 kts | 263° |
| 2026-04-21 17:54 | 20.96088 | -157.56691 | 8001 ft | 165 kts | 263° |
| 2026-04-21 17:54 | 20.96046 | -157.57909 | 7997 ft | 164 kts | 283° |
| 2026-04-21 17:55 | 20.96426 | -157.59057 | 8005 ft | 164 kts | 289° |
| 2026-04-21 17:55 | 20.96799 | -157.60210 | 8007 ft | 164 kts | 288° |
| 2026-04-21 17:55 | 20.97161 | -157.61352 | 8007 ft | 164 kts | 288° |
| 2026-04-21 17:55 | 20.97530 | -157.62509 | 8008 ft | 164 kts | 288° |
| 2026-04-21 17:56 | 20.97899 | -157.63666 | 8008 ft | 164 kts | 288° |
| 2026-04-21 17:56 | 20.98268 | -157.64821 | 8007 ft | 164 kts | 288° |
| 2026-04-21 17:56 | 20.98636 | -157.65980 | 8006 ft | 164 kts | 288° |
| 2026-04-21 17:56 | 20.99007 | -157.67140 | 8006 ft | 164 kts | 288° |
| 2026-04-21 17:57 | 20.99375 | -157.68295 | 8008 ft | 164 kts | 288° |
| 2026-04-21 17:57 | 20.99751 | -157.69476 | 7870 ft | 172 kts | 288° |
| 2026-04-21 17:57 | 21.00144 | -157.70703 | 7711 ft | 176 kts | 288° |
| 2026-04-21 17:57 | 21.00543 | -157.71954 | 7545 ft | 177 kts | 288° |
| 2026-04-21 17:58 | 21.00931 | -157.73175 | 7378 ft | 175 kts | 288° |
| 2026-04-21 17:58 | 21.01320 | -157.74400 | 7210 ft | 173 kts | 288° |
| 2026-04-21 17:58 | 21.01708 | -157.75619 | 7042 ft | 173 kts | 288° |
| 2026-04-21 17:58 | 21.02095 | -157.76835 | 6876 ft | 173 kts | 288° |
| 2026-04-21 17:59 | 21.02482 | -157.78050 | 6714 ft | 173 kts | 288° |
| 2026-04-21 17:59 | 21.02868 | -157.79266 | 6548 ft | 173 kts | 288° |
| 2026-04-21 17:59 | 21.03254 | -157.80482 | 6380 ft | 173 kts | 288° |
| 2026-04-21 17:59 | 21.03643 | -157.81704 | 6168 ft | 174 kts | 288° |
| 2026-04-21 18:00 | 21.04028 | -157.82912 | 5948 ft | 173 kts | 288° |
| 2026-04-21 18:00 | 21.04414 | -157.84131 | 5752 ft | 173 kts | 288° |
| 2026-04-21 18:00 | 21.04801 | -157.85353 | 5555 ft | 174 kts | 289° |
| 2026-04-21 18:00 | 21.05192 | -157.86581 | 5363 ft | 175 kts | 289° |
| 2026-04-21 18:01 | 21.05584 | -157.87816 | 5170 ft | 175 kts | 289° |
| 2026-04-21 18:01 | 21.05972 | -157.89038 | 4976 ft | 173 kts | 289° |
| 2026-04-21 18:01 | 21.06356 | -157.90250 | 4779 ft | 171 kts | 289° |
| 2026-04-21 18:01 | 21.06739 | -157.91456 | 4576 ft | 171 kts | 289° |
| 2026-04-21 18:02 | 21.07119 | -157.92658 | 4378 ft | 170 kts | 289° |
| 2026-04-21 18:02 | 21.07500 | -157.93858 | 4176 ft | 170 kts | 289° |
| 2026-04-21 18:02 | 21.07788 | -157.95062 | 4004 ft | 169 kts | 274° |
| 2026-04-21 18:02 | 21.07883 | -157.96292 | 3997 ft | 165 kts | 278° |
| 2026-04-21 18:03 | 21.08062 | -157.97512 | 4001 ft | 166 kts | 280° |
| 2026-04-21 18:03 | 21.08299 | -157.98725 | 4000 ft | 167 kts | 283° |
| 2026-04-21 18:03 | 21.08591 | -157.99926 | 4002 ft | 167 kts | 286° |
| 2026-04-21 18:03 | 21.08939 | -158.01110 | 4001 ft | 167 kts | 289° |
| 2026-04-21 18:04 | 21.09342 | -158.02272 | 3996 ft | 167 kts | 291° |
| 2026-04-21 18:04 | 21.09799 | -158.03414 | 4016 ft | 167 kts | 295° |
| 2026-04-21 18:04 | 21.10310 | -158.04530 | 4017 ft | 167 kts | 297° |
| 2026-04-21 18:04 | 21.10871 | -158.05618 | 4015 ft | 167 kts | 300° |
| 2026-04-21 18:05 | 21.11483 | -158.06673 | 4013 ft | 167 kts | 303° |
| 2026-04-21 18:05 | 21.12133 | -158.07681 | 4016 ft | 167 kts | 306° |
| 2026-04-21 18:05 | 21.12839 | -158.08666 | 4013 ft | 167 kts | 309° |
| 2026-04-21 18:05 | 21.13589 | -158.09611 | 4010 ft | 166 kts | 312° |
| 2026-04-21 18:06 | 21.14381 | -158.10514 | 4009 ft | 166 kts | 314° |
| 2026-04-21 18:06 | 21.15214 | -158.11373 | 4009 ft | 166 kts | 317° |
| 2026-04-21 18:06 | 21.16155 | -158.12074 | 4006 ft | 165 kts | 342° |
| 2026-04-21 18:06 | 21.17273 | -158.12091 | 3905 ft | 161 kts | 16° |
| 2026-04-21 18:07 | 21.18184 | -158.11454 | 3702 ft | 160 kts | 49° |
| 2026-04-21 18:07 | 21.18846 | -158.10500 | 3504 ft | 160 kts | 53° |
| 2026-04-21 18:07 | 21.19515 | -158.09544 | 3289 ft | 161 kts | 52° |
| 2026-04-21 18:07 | 21.20191 | -158.08590 | 3069 ft | 161 kts | 52° |
| 2026-04-21 18:08 | 21.20869 | -158.07634 | 2850 ft | 161 kts | 52° |
| 2026-04-21 18:08 | 21.21545 | -158.06675 | 2632 ft | 161 kts | 52° |
| 2026-04-21 18:08 | 21.22223 | -158.05719 | 2411 ft | 161 kts | 52° |
| 2026-04-21 18:08 | 21.22900 | -158.04762 | 2189 ft | 161 kts | 52° |
| 2026-04-21 18:09 | 21.23574 | -158.03809 | 2028 ft | 157 kts | 52° |
| 2026-04-21 18:09 | 21.24224 | -158.02912 | 2020 ft | 149 kts | 51° |
| 2026-04-21 18:09 | 21.24837 | -158.02061 | 2005 ft | 144 kts | 53° |
| 2026-04-21 18:09 | 21.25438 | -158.01201 | 1939 ft | 146 kts | 53° |
| 2026-04-21 18:10 | 21.26060 | -158.00306 | 1744 ft | 153 kts | 53° |
| 2026-04-21 18:10 | 21.26712 | -157.99388 | 1545 ft | 156 kts | 52° |
| 2026-04-21 18:10 | 21.27365 | -157.98450 | 1331 ft | 157 kts | 53° |
| 2026-04-21 18:10 | 21.28017 | -157.97529 | 1125 ft | 152 kts | 52° |
| 2026-04-21 18:11 | 21.28630 | -157.96647 | 930 ft | 143 kts | 52° |
| 2026-04-21 18:11 | 21.29214 | -157.95826 | 745 ft | 134 kts | 51° |
| 2026-04-21 18:11 | 21.29754 | -157.95049 | 573 ft | 126 kts | 51° |
| 2026-04-21 18:11 | 21.30247 | -157.94353 | 420 ft | 106 kts | 50° |
| 2026-04-21 18:12 | 21.30646 | -157.93780 | 294 ft | 88 kts | 51° |
| 2026-04-21 18:12 | 21.30991 | -157.93284 | 183 ft | 80 kts | 49° |
| 2026-04-21 18:12 | 21.31345 | -157.92784 | 120 ft | 85 kts | 50° |
| 2026-04-21 18:12 | 21.31660 | -157.92332 | 18 ft | 66 kts | 48° |
| 2026-04-21 18:13 | 21.31900 | -157.92006 | 10 ft | 43 kts | 51° |
| 2026-04-21 18:13 | 21.32046 | -157.91793 | 10 ft | 33 kts | 52° |
| 2026-04-21 18:13 | 21.32204 | -157.91565 | 7 ft | 32 kts | 74° |
| 2026-04-21 18:13 | 21.32139 | -157.91456 | 9 ft | 9 kts | 109° |
| 2026-04-21 18:14 | 21.32188 | -157.91310 | 7 ft | 4 kts | 137° |
| 2026-04-21 18:14 | 21.32133 | -157.91264 | 7 ft | 17 kts | 145° |
| 2026-04-21 18:14 | 21.32027 | -157.91179 | 9 ft | 9 kts | 143° |
| 2026-04-21 18:15 | 21.32026 | -157.91127 | 9 ft | 0 kts | 58° |